Terminal Aerodrome Forecast
Issued by NWS

Home | Current Version | Previous Version | Text Only | Print | Product List | Glossary Off
Versions: 1 2 3 4 5 6 7 8 9 10 11 12 13 14 15 16 17 18 19 20 21 22 23 24 25 26 27 28 29 30 31 32 33 34 35 36

000
FTUS43 KGRB 211734
TAFRHI
TAF
KRHI 211734Z 2118/2218 29006G12KT P6SM SCT035 BKN050
     FM212300 28004KT P6SM SCT050
     FM220200 VRB04KT P6SM SKC
      TEMPO 2208/2212 1/2SM FG OVC002
     FM221500 22007KT P6SM FEW030=

USA.gov is the U.S. government's official web portal to all federal, state and local government web resources and services.